Time;durP1;ratioP1;P1;durP2;ratioP2;P2;SDS_P1;SDS_P2;PMS_P1;PMS_P2;Temp;Humidity;BMP_temperature;BMP_pressure;BME280_temperature;BME280_humidity;BME280_pressure;Samples;Min_cycle;Max_cycle;Signal;HPM_P1;HPM_P2
2022/12/28 00:00:44;;;;;;;9.63;3.40;;;;;;;7.15;100.00;101572.22;5104894;29;20027;-74
2022/12/28 00:03:15;;;;;;;10.02;3.95;;;;;;;7.13;100.00;101561.06;5109844;29;20357;-78
2022/12/28 00:05:47;;;;;;;11.00;3.58;;;;;;;7.15;100.00;101559.19;5103781;29;20585;-75
2022/12/28 00:08:18;;;;;;;7.80;3.58;;;;;;;7.13;100.00;101563.66;5100760;29;20029;-79
2022/12/28 00:10:49;;;;;;;9.32;4.45;;;;;;;7.11;100.00;101536.84;5108057;29;20024;-74
2022/12/28 00:13:20;;;;;;;6.28;3.13;;;;;;;7.16;100.00;101535.66;5089066;29;20036;-75
2022/12/28 00:15:52;;;;;;;8.18;3.53;;;;;;;7.20;100.00;101529.34;5109614;29;20027;-74
2022/12/28 00:18:24;;;;;;;6.57;3.22;;;;;;;7.17;100.00;101515.66;5107983;29;20106;-77
2022/12/28 00:20:59;;;;;;;7.78;3.75;;;;;;;7.18;100.00;101509.50;5106225;29;20024;-78
2022/12/28 00:23:31;;;;;;;8.32;3.72;;;;;;;7.19;100.00;101498.13;5107897;29;20435;-75
2022/12/28 00:26:06;;;;;;;5.82;3.60;;;;;;;7.25;100.00;101489.97;5105558;29;20092;-75
2022/12/28 00:28:39;;;;;;;7.28;3.40;;;;;;;7.21;100.00;101473.66;5084076;29;21620;-76
2022/12/28 00:31:10;;;;;;;9.55;4.07;;;;;;;7.19;100.00;101482.50;5108146;29;20055;-77
2022/12/28 00:33:42;;;;;;;10.38;3.72;;;;;;;7.23;100.00;101484.81;5110961;29;20576;-76
2022/12/28 00:36:14;;;;;;;6.35;3.80;;;;;;;7.26;100.00;101482.03;5108051;29;20124;-77
2022/12/28 00:38:45;;;;;;;7.18;3.97;;;;;;;7.25;100.00;101479.53;5102108;29;20040;-77
2022/12/28 00:41:16;;;;;;;6.65;3.28;;;;;;;7.29;100.00;101476.66;5111415;29;20040;-77
2022/12/28 00:43:48;;;;;;;7.85;4.05;;;;;;;7.27;100.00;101470.69;5107882;29;20028;-77
2022/12/28 00:46:19;;;;;;;7.28;3.10;;;;;;;7.36;100.00;101471.91;5110291;29;20054;-77
2022/12/28 00:48:51;;;;;;;7.43;3.70;;;;;;;7.39;100.00;101465.66;5094772;29;20056;-74
2022/12/28 00:51:22;;;;;;;5.30;3.40;;;;;;;7.44;100.00;101454.00;5113424;29;20024;-77
2022/12/28 00:53:53;;;;;;;5.60;4.07;;;;;;;7.42;100.00;101455.88;5092504;29;20195;-76
2022/12/28 00:56:25;;;;;;;8.15;3.63;;;;;;;7.43;100.00;101449.75;5109305;29;20812;-77
2022/12/28 00:58:57;;;;;;;5.63;3.45;;;;;;;7.35;100.00;101428.53;5094134;29;20067;-77
2022/12/28 01:01:29;;;;;;;6.78;3.33;;;;;;;7.40;100.00;101442.09;5110627;29;20028;-76
2022/12/28 01:04:00;;;;;;;6.03;3.85;;;;;;;7.40;100.00;101439.50;5110103;29;20032;-75
2022/12/28 01:06:32;;;;;;;8.13;3.50;;;;;;;7.43;100.00;101423.66;5109750;29;20616;-77
2022/12/28 01:09:03;;;;;;;5.68;3.75;;;;;;;7.42;100.00;101421.97;5107875;29;20040;-75
2022/12/28 01:11:34;;;;;;;6.80;3.50;;;;;;;7.49;100.00;101418.06;5111159;29;20033;-74
2022/12/28 01:14:05;;;;;;;7.22;3.50;;;;;;;7.48;100.00;101424.22;5107771;29;20024;-77
2022/12/28 01:16:37;;;;;;;6.75;3.35;;;;;;;7.47;100.00;101421.72;5111673;29;20044;-77
2022/12/28 01:19:12;;;;;;;7.90;3.50;;;;;;;7.55;100.00;101415.06;5113359;29;20072;-77
2022/12/28 01:21:43;;;;;;;6.68;3.78;;;;;;;7.50;100.00;101405.84;5109410;29;20123;-77
2022/12/28 01:24:14;;;;;;;6.80;3.70;;;;;;;7.48;100.00;101411.19;5109672;29;20541;-76
2022/12/28 01:26:46;;;;;;;8.32;3.67;;;;;;;7.52;100.00;101404.00;5110930;29;20036;-77
2022/12/28 01:29:17;;;;;;;10.68;3.85;;;;;;;7.56;100.00;101398.50;5092713;29;20103;-77
2022/12/28 01:31:48;;;;;;;7.00;4.13;;;;;;;7.57;100.00;101394.94;5108159;29;20028;-76
2022/12/28 01:34:20;;;;;;;7.90;3.65;;;;;;;7.58;100.00;101385.38;5109582;29;20051;-77
2022/12/28 01:36:51;;;;;;;7.22;3.75;;;;;;;7.60;100.00;101383.50;5110257;29;20024;-77
2022/12/28 01:39:22;;;;;;;5.45;3.35;;;;;;;7.64;100.00;101390.19;5109895;29;20552;-77
2022/12/28 01:41:54;;;;;;;5.60;3.13;;;;;;;7.67;100.00;101378.72;5108135;29;20084;-77
2022/12/28 01:44:25;;;;;;;6.63;3.50;;;;;;;7.76;100.00;101388.56;5110381;29;20137;-77
2022/12/28 01:47:02;;;;;;;7.00;3.67;;;;;;;7.83;100.00;101376.78;5090150;29;20040;-76
2022/12/28 01:49:39;;;;;;;3.72;2.67;;;;;;;7.86;100.00;101371.38;5109496;29;20311;-77
2022/12/28 01:52:13;;;;;;;6.82;3.30;;;;;;;7.89;100.00;101365.13;5109489;29;20035;-74
2022/12/28 01:54:55;;;;;;;5.55;3.45;;;;;;;7.91;100.00;101363.25;5110894;29;20067;-76
2022/12/28 01:57:30;;;;;;;8.02;3.15;;;;;;;7.85;100.00;101340.19;5102371;29;20043;-75
2022/12/28 02:00:07;;;;;;;6.30;3.67;;;;;;;7.90;100.00;101344.16;5110542;29;20409;-77
2022/12/28 02:02:48;;;;;;;7.28;3.08;;;;;;;7.95;100.00;101334.25;5110361;29;20047;-77
2022/12/28 02:05:24;;;;;;;6.80;3.55;;;;;;;7.91;100.00;101331.94;5108296;29;20255;-74
2022/12/28 02:08:04;;;;;;;5.88;3.70;;;;;;;8.00;100.00;101319.13;5091367;29;20024;-77
2022/12/28 02:10:36;;;;;;;5.30;2.97;;;;;;;7.88;100.00;101312.13;5109021;29;20043;-77
2022/12/28 02:13:08;;;;;;;6.15;3.08;;;;;;;7.95;100.00;101318.59;5108710;29;20131;-76
2022/12/28 02:15:40;;;;;;;6.15;3.13;;;;;;;7.95;100.00;101315.16;5109122;29;20039;-74
2022/12/28 02:18:14;;;;;;;7.32;3.25;;;;;;;7.98;100.00;101289.69;5108388;29;20028;-74
2022/12/28 02:21:07;;;;;;;7.70;3.03;;;;;;;8.03;100.00;101295.47;5106395;29;20031;-78
2022/12/28 02:24:04;;;;;;;5.38;2.97;;;;;;;8.21;100.00;101292.53;5106621;29;20039;-77
2022/12/28 02:27:03;;;;;;;5.75;3.42;;;;;;;8.17;100.00;101291.91;5105385;29;20401;-74
2022/12/28 02:30:00;;;;;;;5.22;3.05;;;;;;;8.21;100.00;101274.25;5108122;29;20055;-76
2022/12/28 02:32:50;;;;;;;4.82;3.17;;;;;;;8.12;100.00;101267.06;5109785;29;20067;-77
2022/12/28 02:35:54;;;;;;;5.70;3.20;;;;;;;8.14;100.00;101260.78;5104223;29;20464;-77
2022/12/28 02:38:31;;;;;;;5.03;2.90;;;;;;;8.05;100.00;101259.66;5071384;29;20032;-77
2022/12/28 02:41:09;;;;;;;4.65;3.13;;;;;;;8.07;100.00;101256.09;5108099;29;20032;-74
2022/12/28 02:43:41;;;;;;;6.60;3.10;;;;;;;7.99;100.00;101252.25;5109389;29;20108;-75
2022/12/28 02:52:37;;;;;;;4.60;3.40;;;;;;;8.02;100.00;101246.78;5132039;23;20087;-72
2022/12/28 02:58:32;;;;;;;5.90;3.65;;;;;;;7.92;100.00;101237.94;5114392;29;20036;-72
2022/12/28 03:01:25;;;;;;;5.53;3.58;;;;;;;8.00;100.00;101233.03;5110806;29;20497;-72
2022/12/28 03:04:08;;;;;;;5.13;3.23;;;;;;;8.12;100.00;101230.53;5129936;29;20040;-72
2022/12/28 03:09:40;;;;;;;6.35;3.58;;;;;;;8.02;100.00;101227.69;5132157;29;20043;-72
2022/12/28 03:12:25;;;;;;;6.65;3.97;;;;;;;7.99;100.00;101222.69;5112293;29;20122;-72
2022/12/28 03:15:05;;;;;;;7.93;3.85;;;;;;;8.02;100.00;101228.53;5132203;29;20039;-72
2022/12/28 03:31:56;;;;;;;5.45;4.00;;;;;;;8.01;100.00;101208.59;5135822;29;20130;-72
2022/12/28 03:34:28;;;;;;;4.78;3.55;;;;;;;8.00;100.00;101206.13;5133809;29;20111;-71
2022/12/28 03:37:28;;;;;;;8.20;4.15;;;;;;;8.23;100.00;101205.38;5132977;29;20039;-71
2022/12/28 03:40:21;;;;;;;6.88;4.20;;;;;;;8.14;100.00;101205.97;5134344;29;20023;-71
2022/12/28 03:45:54;;;;;;;6.55;3.67;;;;;;;8.16;100.00;101198.06;5134654;29;20044;-71
2022/12/28 03:48:26;;;;;;;7.22;3.53;;;;;;;7.99;100.00;101181.81;5135245;29;20524;-72
2022/12/28 03:50:58;;;;;;;7.38;4.15;;;;;;;8.14;100.00;101192.09;5133585;29;20118;-71
2022/12/28 03:53:41;;;;;;;5.72;4.05;;;;;;;8.26;100.00;101186.06;5135665;29;20048;-72
2022/12/28 03:56:15;;;;;;;6.82;3.80;;;;;;;8.21;100.00;101186.34;5112782;29;20022;-72
2022/12/28 03:58:47;;;;;;;4.80;3.70;;;;;;;8.11;100.00;101177.50;5135865;29;20031;-72
2022/12/28 04:01:19;;;;;;;6.10;3.72;;;;;;;8.20;100.00;101174.25;5135671;29;20471;-72
2022/12/28 04:03:50;;;;;;;6.45;4.05;;;;;;;8.22;100.00;101176.75;5132862;29;20035;-72
2022/12/28 04:06:21;;;;;;;6.18;3.50;;;;;;;8.25;100.00;101176.53;5135428;29;20039;-72
2022/12/28 04:08:53;;;;;;;7.28;3.95;;;;;;;8.26;100.00;101163.41;5132536;29;20066;-72
2022/12/28 04:11:24;;;;;;;5.80;3.80;;;;;;;8.31;100.00;101159.63;5134875;29;20024;-72
2022/12/28 04:13:55;;;;;;;6.00;3.50;;;;;;;8.32;100.00;101159.50;5131186;29;20054;-72
2022/12/28 04:16:27;;;;;;;7.05;3.85;;;;;;;8.38;100.00;101164.34;5133135;29;20393;-72
2022/12/28 04:18:58;;;;;;;7.00;3.97;;;;;;;8.35;100.00;101159.28;5131215;29;20028;-72
2022/12/28 04:21:29;;;;;;;6.15;4.00;;;;;;;8.40;100.00;101170.28;5133910;29;20032;-72
2022/12/28 04:24:00;;;;;;;6.35;3.83;;;;;;;8.44;100.00;101170.88;5130191;29;20040;-72
2022/12/28 04:26:32;;;;;;;8.27;3.65;;;;;;;8.49;100.00;101167.03;5135227;29;20023;-72
2022/12/28 04:29:03;;;;;;;4.70;3.35;;;;;;;8.42;100.00;101160.56;5128666;29;20032;-72
2022/12/28 04:31:34;;;;;;;4.97;3.17;;;;;;;8.52;100.00;101172.03;5132527;29;20036;-72
2022/12/28 04:34:06;;;;;;;6.28;3.50;;;;;;;8.51;100.00;101167.72;5134751;29;20042;-72
2022/12/28 04:36:38;;;;;;;5.53;3.40;;;;;;;8.62;100.00;101169.59;5132074;29;20034;-72
2022/12/28 04:39:10;;;;;;;6.95;3.70;;;;;;;8.65;100.00;101166.75;5135108;29;20389;-72
2022/12/28 04:41:41;;;;;;;6.15;3.75;;;;;;;8.65;100.00;101160.72;5134493;29;20032;-72
2022/12/28 04:44:12;;;;;;;5.80;3.97;;;;;;;8.67;100.00;101159.63;5132207;29;20035;-72
2022/12/28 04:46:43;;;;;;;7.18;3.55;;;;;;;8.64;100.00;101159.88;5133544;29;20036;-72
2022/12/28 04:49:15;;;;;;;6.95;3.50;;;;;;;8.63;100.00;101154.75;5134127;29;20475;-72
2022/12/28 04:51:46;;;;;;;5.03;3.28;;;;;;;8.72;100.00;101164.56;5131464;29;20035;-74
2022/12/28 04:54:17;;;;;;;6.38;3.45;;;;;;;8.74;100.00;101170.50;5132352;29;20067;-72
2022/12/28 04:56:48;;;;;;;6.45;3.90;;;;;;;8.75;100.00;101159.09;5134604;29;20118;-72
2022/12/28 04:59:20;;;;;;;5.70;3.60;;;;;;;8.77;100.00;101149.38;5132941;29;20046;-72
2022/12/28 05:01:51;;;;;;;6.35;3.60;;;;;;;8.78;100.00;101156.25;5134721;29;20024;-72
2022/12/28 05:04:22;;;;;;;4.63;3.50;;;;;;;8.80;100.00;101145.72;5128090;29;20020;-72
2022/12/28 05:06:54;;;;;;;6.30;3.90;;;;;;;8.76;100.00;101164.22;5115249;29;20028;-72
2022/12/28 05:09:25;;;;;;;7.68;3.50;;;;;;;8.83;100.00;101151.56;5134824;29;20023;-72
2022/12/28 05:11:56;;;;;;;4.80;3.35;;;;;;;8.77;100.00;101150.19;5130425;29;20035;-72
2022/12/28 05:14:27;;;;;;;4.55;3.45;;;;;;;8.72;100.00;101148.88;5133172;29;20034;-72
2022/12/28 05:16:59;;;;;;;7.80;3.60;;;;;;;8.72;100.00;101154.09;5132511;29;20040;-72
2022/12/28 05:19:30;;;;;;;6.63;4.00;;;;;;;8.73;100.00;101158.38;5131746;29;20135;-72
2022/12/28 05:22:02;;;;;;;6.75;3.45;;;;;;;8.71;100.00;101155.88;5130590;29;20024;-72
2022/12/28 05:24:33;;;;;;;6.40;3.63;;;;;;;8.70;100.00;101143.75;5129906;29;20055;-72
2022/12/28 05:27:04;;;;;;;6.20;3.40;;;;;;;8.75;100.00;101156.47;5131969;29;20027;-71
2022/12/28 05:29:35;;;;;;;6.40;3.55;;;;;;;8.76;100.00;101143.31;5133573;29;20023;-72
2022/12/28 05:32:07;;;;;;;5.80;3.70;;;;;;;8.64;100.00;101133.75;5131405;29;20036;-72
2022/12/28 05:34:38;;;;;;;6.30;3.40;;;;;;;8.83;100.00;101148.94;5132600;29;20474;-72
2022/12/28 05:37:10;;;;;;;7.68;3.55;;;;;;;8.79;100.00;101144.88;5132671;29;20038;-72
2022/12/28 05:39:41;;;;;;;4.82;3.17;;;;;;;8.80;100.00;101143.94;5131256;29;20035;-72
2022/12/28 05:42:12;;;;;;;7.82;3.50;;;;;;;8.82;100.00;101136.81;5133070;29;20038;-72
2022/12/28 05:44:43;;;;;;;7.13;3.33;;;;;;;8.86;100.00;101140.84;5132362;29;20027;-72
2022/12/28 05:47:14;;;;;;;6.68;3.78;;;;;;;8.84;100.00;101139.31;5132067;29;20031;-71
2022/12/28 05:49:46;;;;;;;7.57;3.60;;;;;;;8.81;100.00;101140.38;5133375;29;20027;-71
2022/12/28 05:52:17;;;;;;;6.18;3.00;;;;;;;8.86;100.00;101134.81;5131114;29;20043;-71
2022/12/28 05:54:49;;;;;;;5.30;3.45;;;;;;;8.88;100.00;101144.19;5131653;29;20043;-71
2022/12/28 05:57:20;;;;;;;5.88;3.22;;;;;;;8.84;100.00;101134.94;5133679;29;20118;-72
2022/12/28 05:59:51;;;;;;;3.88;3.00;;;;;;;8.76;100.00;101124.19;5133580;29;20031;-71
2022/12/28 06:02:26;;;;;;;6.57;2.90;;;;;;;8.86;100.00;101134.81;5128136;29;20027;-71
2022/12/28 06:04:57;;;;;;;7.00;2.90;;;;;;;8.86;100.00;101127.78;5130000;29;20058;-71
2022/12/28 06:07:28;;;;;;;4.95;2.85;;;;;;;8.90;100.00;101123.19;5130733;29;20032;-71
2022/12/28 06:10:00;;;;;;;5.32;2.90;;;;;;;8.93;100.00;101128.19;5131694;29;20138;-71
2022/12/28 06:12:31;;;;;;;3.97;2.63;;;;;;;8.88;100.00;101120.69;5130998;29;20035;-72
2022/12/28 06:15:02;;;;;;;3.58;2.55;;;;;;;8.95;100.00;101118.47;5130103;29;20042;-72
2022/12/28 06:17:34;;;;;;;5.00;2.67;;;;;;;8.94;100.00;101111.56;5133056;29;20039;-72
2022/12/28 06:20:06;;;;;;;4.03;2.60;;;;;;;8.94;100.00;101103.72;5113455;29;20114;-72
2022/12/28 06:22:37;;;;;;;2.92;2.33;;;;;;;8.95;100.00;101093.16;5133404;29;20039;-72
2022/12/28 06:25:09;;;;;;;3.58;2.58;;;;;;;8.94;100.00;101099.34;5133881;29;20019;-72
2022/12/28 06:27:40;;;;;;;3.83;2.83;;;;;;;8.96;100.00;101100.03;5131475;29;20028;-72
2022/12/28 06:30:12;;;;;;;5.55;2.75;;;;;;;8.93;100.00;101097.66;5128263;29;20026;-72
2022/12/28 06:32:43;;;;;;;5.20;2.67;;;;;;;8.90;100.00;101089.22;5129778;29;20044;-72
2022/12/28 06:35:14;;;;;;;5.05;2.63;;;;;;;8.96;100.00;101091.38;5129608;29;20039;-72
2022/12/28 06:37:46;;;;;;;11.02;3.10;;;;;;;8.96;100.00;101081.75;5133078;29;20088;-72
2022/12/28 06:40:18;;;;;;;4.97;2.80;;;;;;;9.02;100.00;101075.25;5132312;29;20053;-72
2022/12/28 06:42:49;;;;;;;4.28;2.85;;;;;;;9.03;100.00;101076.91;5130833;29;20481;-72
2022/12/28 06:45:20;;;;;;;3.08;2.42;;;;;;;9.01;100.00;101073.56;5133555;29;20495;-73
2022/12/28 06:47:52;;;;;;;4.90;2.72;;;;;;;9.02;100.00;101076.09;5132845;29;20497;-72
2022/12/28 06:50:23;;;;;;;4.07;2.60;;;;;;;9.06;100.00;101076.69;5131313;29;20088;-72
2022/12/28 06:52:54;;;;;;;6.20;2.83;;;;;;;9.06;100.00;101076.69;5127883;29;20036;-72
2022/12/28 06:55:25;;;;;;;5.95;3.40;;;;;;;8.99;100.00;101083.31;5110740;29;20024;-72
2022/12/28 06:57:57;;;;;;;6.85;3.10;;;;;;;9.09;100.00;101066.00;5136024;29;20045;-72
2022/12/28 07:00:28;;;;;;;5.28;3.03;;;;;;;9.04;100.00;101070.72;5135685;29;20030;-73
2022/12/28 07:02:59;;;;;;;6.97;3.28;;;;;;;9.11;100.00;101068.50;5129004;29;20043;-72
2022/12/28 07:05:30;;;;;;;5.35;3.47;;;;;;;9.08;100.00;101066.09;5133259;29;20027;-72
2022/12/28 07:08:02;;;;;;;7.65;3.15;;;;;;;9.08;100.00;101074.78;5133862;29;20019;-72
2022/12/28 07:10:33;;;;;;;6.03;2.90;;;;;;;9.15;100.00;101075.16;5133507;29;20023;-72
2022/12/28 07:13:05;;;;;;;7.20;3.30;;;;;;;9.14;100.00;101065.66;5133321;29;20036;-72
2022/12/28 07:15:36;;;;;;;5.35;3.30;;;;;;;9.10;100.00;101066.84;5129956;29;20023;-72
2022/12/28 07:18:08;;;;;;;7.07;3.15;;;;;;;9.17;100.00;101071.50;5132691;29;20039;-72
2022/12/28 07:20:39;;;;;;;4.10;2.85;;;;;;;9.11;100.00;101061.50;5131975;29;20030;-72
2022/12/28 07:23:10;;;;;;;4.00;2.80;;;;;;;9.18;100.00;101067.09;5128677;29;20402;-72
2022/12/28 07:25:41;;;;;;;4.60;2.60;;;;;;;9.16;100.00;101056.75;5132420;29;20503;-72
2022/12/28 07:28:13;;;;;;;5.00;3.22;;;;;;;9.08;100.00;101032.13;5132541;28;20397;-73
2022/12/28 07:30:44;;;;;;;4.47;2.42;;;;;;;9.21;100.00;101053.78;5126553;29;20390;-72
2022/12/28 07:33:15;;;;;;;4.15;2.75;;;;;;;9.20;100.00;101046.88;5108838;29;20528;-72
2022/12/28 07:35:47;;;;;;;4.50;2.83;;;;;;;9.15;100.00;101049.84;5125393;29;20071;-72
2022/12/28 07:38:18;;;;;;;4.22;2.58;;;;;;;9.18;100.00;101057.47;5130417;29;20043;-72
2022/12/28 07:40:49;;;;;;;3.30;2.30;;;;;;;9.18;100.00;101074.94;5134443;29;20034;-72
2022/12/28 07:43:21;;;;;;;4.95;2.80;;;;;;;9.20;100.00;101052.94;5132099;29;20020;-72
2022/12/28 07:46:17;;;;;;;4.47;2.20;;;;;;;9.42;100.00;101054.75;5132198;29;20027;-72
2022/12/28 07:48:50;;;;;;;4.60;2.42;;;;;;;9.20;100.00;101054.72;5134162;29;20035;-72
2022/12/28 07:51:30;;;;;;;5.95;2.38;;;;;;;9.32;100.00;101071.25;5130968;29;20031;-72
2022/12/28 07:54:03;;;;;;;3.72;2.60;;;;;;;9.21;100.00;101066.88;5131491;29;20050;-72
2022/12/28 07:56:34;;;;;;;4.88;2.20;;;;;;;9.24;100.00;101067.47;5131242;29;20035;-72
2022/12/28 07:59:06;;;;;;;6.97;2.80;;;;;;;9.26;100.00;101062.13;5134403;29;20043;-72
2022/12/28 08:01:38;;;;;;;4.38;2.70;;;;;;;9.24;100.00;101070.09;5131320;29;20038;-72
2022/12/28 08:04:12;;;;;;;5.93;2.97;;;;;;;9.32;100.00;101055.56;5125286;29;20470;-72
2022/12/28 08:06:44;;;;;;;4.43;2.45;;;;;;;9.17;100.00;101054.97;5134619;29;20020;-72
2022/12/28 08:09:16;;;;;;;5.47;2.60;;;;;;;9.24;100.00;101058.78;5131158;29;20035;-72
2022/12/28 08:11:47;;;;;;;3.65;2.55;;;;;;;9.21;100.00;101066.88;5133816;29;20435;-72
2022/12/28 08:14:19;;;;;;;4.43;2.75;;;;;;;9.28;100.00;101070.69;5131000;29;20397;-72
2022/12/28 08:16:50;;;;;;;5.72;2.72;;;;;;;9.32;100.00;101055.56;5130591;29;20055;-72
2022/12/28 08:19:21;;;;;;;5.00;2.90;;;;;;;9.34;100.00;101064.97;5132530;29;20373;-72
2022/12/28 08:21:52;;;;;;;5.85;2.60;;;;;;;9.38;100.00;101062.97;5115846;29;20107;-72
2022/12/28 08:24:24;;;;;;;4.57;2.70;;;;;;;9.35;100.00;101053.56;5126556;29;20024;-72
2022/12/28 08:26:55;;;;;;;4.28;2.60;;;;;;;9.41;100.00;101055.72;5132935;29;20043;-72
2022/12/28 08:29:27;;;;;;;4.72;2.70;;;;;;;9.41;100.00;101054.88;5131632;29;20027;-72
2022/12/28 08:31:58;;;;;;;5.15;3.17;;;;;;;9.38;100.00;101060.34;5127336;29;20523;-72
2022/12/28 08:34:29;;;;;;;7.10;2.83;;;;;;;9.43;100.00;101060.81;5128042;29;20031;-72
2022/12/28 08:37:00;;;;;;;5.93;3.03;;;;;;;9.39;100.00;101054.16;5128360;29;20079;-73
2022/12/28 08:39:32;;;;;;;4.35;2.40;;;;;;;9.40;100.00;101054.06;5128592;29;20417;-72
2022/12/28 08:42:03;;;;;;;5.05;3.08;;;;;;;9.43;100.00;101056.44;5128312;29;20027;-72
2022/12/28 08:44:34;;;;;;;4.72;2.53;;;;;;;9.44;100.00;101052.88;5129406;29;20050;-72
2022/12/28 08:47:05;;;;;;;9.20;3.10;;;;;;;9.42;100.00;101046.09;5128114;29;20083;-72
2022/12/28 08:49:37;;;;;;;8.30;2.55;;;;;;;9.39;100.00;101043.69;5128287;29;20020;-72
2022/12/28 08:52:08;;;;;;;5.57;2.83;;;;;;;9.45;100.00;101062.38;5129812;29;20035;-73
2022/12/28 08:54:40;;;;;;;6.50;2.67;;;;;;;9.46;100.00;101053.56;5126840;29;20067;-72
2022/12/28 08:57:11;;;;;;;9.05;3.10;;;;;;;9.32;100.00;101035.50;5124714;29;20042;-72
2022/12/28 08:59:43;;;;;;;6.22;3.03;;;;;;;9.37;100.00;101040.38;5124737;29;20035;-72
2022/12/28 09:02:14;;;;;;;6.07;2.80;;;;;;;9.46;100.00;101050.97;5118500;29;20126;-72
2022/12/28 09:04:45;;;;;;;7.70;2.80;;;;;;;9.48;100.00;101054.31;5112623;29;20467;-72
2022/12/28 09:07:16;;;;;;;5.78;2.65;;;;;;;9.43;100.00;101047.75;5128066;29;20397;-72
2022/12/28 09:09:48;;;;;;;5.25;2.65;;;;;;;9.45;100.00;101053.69;5128882;29;20178;-71
2022/12/28 09:12:19;;;;;;;7.32;2.70;;;;;;;9.49;100.00;101057.75;5131155;29;20070;-72
2022/12/28 09:14:50;;;;;;;6.90;2.67;;;;;;;9.33;100.00;101031.13;5123190;29;20465;-72
2022/12/28 09:17:22;;;;;;;8.00;3.30;;;;;;;9.48;100.00;101056.91;5111487;29;20023;-72
2022/12/28 09:19:53;;;;;;;8.10;3.10;;;;;;;9.48;100.00;101059.53;5128518;29;20036;-72
2022/12/28 09:22:24;;;;;;;6.32;2.35;;;;;;;9.50;100.00;101065.47;5128886;29;20028;-72
2022/12/28 09:24:55;;;;;;;8.10;2.83;;;;;;;9.37;100.00;101048.22;5126275;29;20109;-72
2022/12/28 09:27:27;;;;;;;6.35;2.80;;;;;;;9.46;100.00;101063.19;5132383;29;20063;-72
2022/12/28 09:29:58;;;;;;;5.55;2.90;;;;;;;9.53;100.00;101061.78;5130046;29;20054;-72
2022/12/28 09:32:29;;;;;;;6.18;2.60;;;;;;;9.48;100.00;101048.25;5112957;29;20031;-72
2022/12/28 09:35:01;;;;;;;4.35;2.42;;;;;;;9.55;100.00;101052.06;5130580;29;20110;-72
2022/12/28 09:37:32;;;;;;;5.68;2.47;;;;;;;9.55;100.00;101059.91;5123551;29;20039;-72
2022/12/28 09:40:04;;;;;;;4.35;2.30;;;;;;;9.61;100.00;101051.56;5121201;29;20032;-73
2022/12/28 09:42:40;;;;;;;3.85;1.95;;;;;;;9.61;100.00;101048.94;5126278;29;20036;-72
2022/12/28 09:45:12;;;;;;;4.15;2.20;;;;;;;9.62;100.00;101047.16;5124324;29;20110;-72
2022/12/28 09:47:50;;;;;;;4.57;2.20;;;;;;;9.70;100.00;101063.13;5120203;29;20042;-72
2022/12/28 09:50:29;;;;;;;3.55;2.08;;;;;;;9.73;100.00;101058.44;5129901;29;21102;-72
2022/12/28 09:53:03;;;;;;;4.20;1.90;;;;;;;9.66;100.00;101054.66;5128846;28;20052;-72
2022/12/28 09:55:37;;;;;;;4.05;1.90;;;;;;;9.69;100.00;101043.13;5125105;29;20494;-72
2022/12/28 09:58:15;;;;;;;3.80;2.13;;;;;;;9.69;100.00;101043.13;5121692;29;20027;-72
2022/12/28 10:00:49;;;;;;;4.45;2.05;;;;;;;9.75;100.00;101053.13;5125179;29;20036;-73
2022/12/28 10:03:41;;;;;;;3.30;2.20;;;;;;;9.93;100.00;101050.84;5120430;29;20034;-72
2022/12/28 10:06:15;;;;;;;2.80;1.60;;;;;;;9.73;100.00;101045.38;5120684;29;20031;-72
2022/12/28 10:08:49;;;;;;;4.13;1.80;;;;;;;9.74;100.00;101051.47;5125106;29;20050;-73
2022/12/28 10:11:31;;;;;;;2.83;1.60;;;;;;;9.81;100.00;101039.56;5127086;29;20035;-72
2022/12/28 10:14:34;;;;;;;3.10;1.55;;;;;;;9.79;100.00;101044.06;5126131;29;20042;-73
2022/12/28 10:17:08;;;;;;;2.88;1.60;;;;;;;9.66;100.00;101032.88;5129539;29;20034;-72
2022/12/28 10:19:40;;;;;;;2.90;1.40;;;;;;;9.77;100.00;101040.72;5124594;29;20062;-72
2022/12/28 10:22:20;;;;;;;3.97;1.60;;;;;;;9.87;100.00;101028.59;5128498;29;20036;-72
2022/12/28 10:24:52;;;;;;;2.45;1.58;;;;;;;9.79;100.00;101032.78;5113378;29;20042;-73
2022/12/28 10:27:29;;;;;;;3.45;1.52;;;;;;;9.95;100.00;101035.84;5128799;29;20024;-72
2022/12/28 10:30:05;;;;;;;3.15;1.75;;;;;;;9.80;100.00;101023.97;5136697;29;20042;-72
2022/12/28 10:32:53;;;;;;;4.43;1.92;;;;;;;10.02;100.00;101023.94;5129771;29;20042;-72
2022/12/28 10:35:34;;;;;;;4.10;1.98;;;;;;;9.84;100.00;101028.00;5131948;29;20063;-72
2022/12/28 10:38:20;;;;;;;2.72;1.90;;;;;;;9.90;100.00;101025.75;5132117;29;20023;-72
2022/12/28 10:41:04;;;;;;;3.35;1.83;;;;;;;9.93;100.00;101020.28;5117515;29;20146;-72
2022/12/28 10:43:39;;;;;;;3.50;1.90;;;;;;;9.90;100.00;101025.75;5134161;29;20039;-72
2022/12/28 10:46:22;;;;;;;2.40;1.60;;;;;;;10.01;100.00;101014.44;5135021;29;20504;-72
2022/12/28 10:48:57;;;;;;;6.03;1.85;;;;;;;9.89;100.00;101013.63;5134117;29;20031;-72
2022/12/28 10:51:28;;;;;;;3.85;2.08;;;;;;;9.88;100.00;101019.78;5135483;29;20063;-72
2022/12/28 10:54:00;;;;;;;3.03;1.98;;;;;;;9.86;100.00;101010.41;5133445;29;21290;-72
2022/12/28 10:56:42;;;;;;;4.18;2.00;;;;;;;9.79;100.00;100996.97;5132515;29;20377;-72
2022/12/28 10:59:23;;;;;;;4.00;2.00;;;;;;;9.89;100.00;100987.44;5133940;29;20059;-72
2022/12/28 11:02:20;;;;;;;4.18;2.05;;;;;;;10.09;100.00;101001.56;5130093;29;20518;-72
2022/12/28 11:05:03;;;;;;;3.15;2.00;;;;;;;10.07;100.00;101002.63;5133218;29;20040;-72
2022/12/28 11:07:37;;;;;;;4.20;2.07;;;;;;;9.95;100.00;101013.13;5114649;29;20054;-72
2022/12/28 11:10:25;;;;;;;5.68;2.20;;;;;;;10.06;100.00;101009.66;5132159;29;20383;-72
2022/12/28 11:12:59;;;;;;;3.28;2.00;;;;;;;9.91;100.00;101001.22;5128157;29;20023;-72
2022/12/28 11:15:31;;;;;;;3.33;1.85;;;;;;;9.84;100.00;100994.81;5131199;29;20050;-72
2022/12/28 11:18:16;;;;;;;2.97;2.20;;;;;;;10.01;100.00;101005.75;5127535;29;20068;-72
2022/12/28 11:20:51;;;;;;;4.97;1.88;;;;;;;9.97;100.00;100992.06;5132099;29;20122;-72
2022/12/28 11:23:25;;;;;;;4.30;1.83;;;;;;;9.94;100.00;100993.13;5132331;29;20024;-72
2022/12/28 11:25:57;;;;;;;4.57;1.98;;;;;;;9.98;100.00;100991.94;5133000;29;20544;-72
2022/12/28 11:28:28;;;;;;;3.97;1.97;;;;;;;9.98;100.00;100993.72;5132385;29;20042;-72
2022/12/28 11:31:00;;;;;;;5.75;1.90;;;;;;;9.95;100.00;100986.94;5131605;29;20031;-72
2022/12/28 11:33:49;;;;;;;3.42;2.00;;;;;;;10.18;100.00;100974.63;5133531;29;20414;-72
2022/12/28 11:36:24;;;;;;;4.75;2.20;;;;;;;10.08;100.00;100970.28;5133637;29;20130;-72
2022/12/28 11:38:55;;;;;;;4.85;2.10;;;;;;;10.10;100.00;100965.72;5131116;29;20114;-72
2022/12/28 11:41:29;;;;;;;5.75;2.28;;;;;;;10.01;100.00;100963.88;5130292;29;20329;-72
2022/12/28 11:44:03;;;;;;;5.10;2.20;;;;;;;10.03;100.00;100954.91;5126164;29;20067;-72
2022/12/28 11:46:37;;;;;;;5.07;2.28;;;;;;;10.03;100.00;100951.47;5128700;29;20050;-72
2022/12/28 11:49:20;;;;;;;4.28;2.30;;;;;;;10.15;100.00;100953.94;5131953;29;20505;-72
2022/12/28 11:52:16;;;;;;;6.35;2.28;;;;;;;10.24;100.00;100952.38;5133053;29;20469;-72
2022/12/28 11:54:56;;;;;;;7.00;2.00;;;;;;;10.11;100.00;100943.81;5131702;29;20043;-72
2022/12/28 11:57:39;;;;;;;4.25;2.10;;;;;;;10.17;100.00;100931.06;5132612;29;20031;-72
2022/12/28 12:00:17;;;;;;;5.18;2.22;;;;;;;10.17;100.00;100925.84;5130323;29;20079;-72
2022/12/28 12:03:02;;;;;;;6.03;1.90;;;;;;;10.17;100.00;100923.22;5129125;29;20040;-72
2022/12/28 12:05:37;;;;;;;4.03;1.88;;;;;;;10.14;100.00;100926.09;5111967;29;20027;-72
2022/12/28 12:08:12;;;;;;;6.10;2.35;;;;;;;10.07;100.00;100930.16;5132724;29;20168;-72
2022/12/28 12:10:48;;;;;;;5.07;2.30;;;;;;;10.02;100.00;100921.84;5131762;29;20024;-72
2022/12/28 12:13:25;;;;;;;4.82;1.95;;;;;;;10.14;100.00;100909.56;5129093;29;20051;-72
2022/12/28 12:16:17;;;;;;;5.82;2.00;;;;;;;10.28;100.00;100909.28;5112309;29;20043;-72
2022/12/28 12:18:53;;;;;;;3.35;1.70;;;;;;;10.10;100.00;100906.34;5126518;29;20032;-72
2022/12/28 12:21:29;;;;;;;6.03;2.20;;;;;;;10.01;100.00;100906.28;5127339;29;20054;-72
2022/12/28 12:24:08;;;;;;;7.97;2.03;;;;;;;10.10;100.00;100908.16;5133000;29;20028;-71
2022/12/28 12:26:54;;;;;;;4.85;2.05;;;;;;;10.21;100.00;100902.84;5132650;29;20102;-72